Time;durP1;ratioP1;P1;durP2;ratioP2;P2;SDS_P1;SDS_P2;PMS_P1;PMS_P2;Temp;Humidity;BMP_temperature;BMP_pressure;BME280_temperature;BME280_humidity;BME280_pressure;Samples;Min_cycle;Max_cycle;Signal;HPM_P1;HPM_P2
2023/09/16 00:00:44;;;;;;;28.80;16.30;;;;;;;13.18;100.00;93876.66;5094348;28;20043;-59
2023/09/16 00:03:11;;;;;;;30.05;16.45;;;;;;;13.19;100.00;93872.66;5088648;28;20105;-59
2023/09/16 00:05:38;;;;;;;29.70;16.60;;;;;;;13.11;100.00;93871.31;5088305;28;20040;-59
2023/09/16 00:08:06;;;;;;;29.58;15.73;;;;;;;13.16;100.00;93874.31;5088669;28;20058;-59
2023/09/16 00:10:34;;;;;;;30.92;17.33;;;;;;;13.19;100.00;93870.69;5088179;28;20039;-59
2023/09/16 00:13:01;;;;;;;33.60;17.27;;;;;;;13.10;100.00;93872.50;5091353;28;20044;-59
2023/09/16 00:15:28;;;;;;;30.67;16.45;;;;;;;13.14;100.00;93881.47;5092623;28;20052;-59
2023/09/16 00:17:54;;;;;;;29.83;16.13;;;;;;;12.97;100.00;93886.22;5092278;28;20042;-59
2023/09/16 00:20:25;;;;;;;28.75;16.48;;;;;;;12.78;100.00;93890.63;5090918;28;20496;-60
2023/09/16 00:22:51;;;;;;;28.88;16.20;;;;;;;12.73;100.00;93885.63;5092216;28;20054;-59
2023/09/16 00:25:19;;;;;;;28.57;15.77;;;;;;;12.78;100.00;93885.13;5092236;28;20043;-59
2023/09/16 00:27:46;;;;;;;27.27;15.57;;;;;;;12.82;100.00;93891.31;5091774;28;20040;-59
2023/09/16 00:30:14;;;;;;;29.73;17.15;;;;;;;12.88;100.00;93886.06;5091890;28;20047;-59
2023/09/16 00:32:41;;;;;;;26.90;15.55;;;;;;;12.92;100.00;93889.50;5091730;28;20040;-59
2023/09/16 00:35:08;;;;;;;29.85;16.38;;;;;;;12.93;100.00;93888.28;5091961;28;20478;-59
2023/09/16 00:37:35;;;;;;;28.57;15.50;;;;;;;12.95;100.00;93885.88;5091818;28;20036;-57
2023/09/16 00:40:05;;;;;;;28.05;15.75;;;;;;;12.98;100.00;93887.78;5091956;28;20044;-58
2023/09/16 00:42:32;;;;;;;25.70;14.40;;;;;;;12.70;100.00;93876.25;5091676;28;20054;-58
2023/09/16 00:44:59;;;;;;;25.20;14.15;;;;;;;12.54;100.00;93879.00;5092066;28;20043;-58
2023/09/16 00:47:26;;;;;;;24.65;14.13;;;;;;;12.52;100.00;93873.16;5091825;28;20618;-59
2023/09/16 00:49:53;;;;;;;71.67;15.93;;;;;;;12.54;100.00;93884.50;5089622;28;20048;-58
2023/09/16 00:52:20;;;;;;;46.15;14.80;;;;;;;12.45;100.00;93887.84;5091995;28;20036;-59
2023/09/16 00:54:50;;;;;;;44.28;14.48;;;;;;;12.39;100.00;93887.59;5090887;28;20048;-59
2023/09/16 00:57:17;;;;;;;51.17;14.43;;;;;;;12.46;100.00;93883.91;5091897;28;20054;-58
2023/09/16 00:59:44;;;;;;;50.67;14.35;;;;;;;12.45;100.00;93887.06;5090990;28;20652;-57
2023/09/16 01:02:13;;;;;;;81.20;14.80;;;;;;;12.36;100.00;93891.19;5091648;28;20051;-58
2023/09/16 01:04:42;;;;;;;68.75;14.38;;;;;;;12.38;100.00;93891.53;5090868;28;20032;-58
2023/09/16 01:07:09;;;;;;;90.47;16.00;;;;;;;12.48;100.00;93895.25;5091255;28;20622;-58
2023/09/16 01:09:36;;;;;;;48.92;21.38;;;;;;;12.55;100.00;93889.56;5091148;28;20036;-58
2023/09/16 01:12:03;;;;;;;30.98;16.20;;;;;;;12.58;100.00;93893.47;5091260;28;20036;-58
2023/09/16 01:14:30;;;;;;;29.13;13.83;;;;;;;12.59;100.00;93889.47;5091650;28;20036;-59
2023/09/16 01:17:08;;;;;;;32.25;13.88;;;;;;;12.54;100.00;93901.78;5090372;28;20596;-59
2023/09/16 01:19:49;;;;;;;46.25;13.73;;;;;;;12.45;100.00;93901.59;5083244;28;20046;-58
2023/09/16 01:22:17;;;;;;;28.90;13.55;;;;;;;12.36;100.00;93907.69;5071082;28;20037;-59
2023/09/16 01:24:54;;;;;;;56.60;14.07;;;;;;;12.45;100.00;93917.34;5087862;28;20040;-58
2023/09/16 01:27:21;;;;;;;25.47;13.73;;;;;;;12.49;100.00;93913.28;5091242;28;20044;-59
2023/09/16 01:29:50;;;;;;;34.53;13.93;;;;;;;12.54;100.00;93917.53;5090606;28;20047;-59
2023/09/16 01:32:24;;;;;;;27.98;13.88;;;;;;;12.60;100.00;93918.56;5091255;28;20036;-61
2023/09/16 01:34:53;;;;;;;25.13;13.68;;;;;;;12.62;100.00;93918.94;5090108;28;20051;-62
2023/09/16 01:37:23;;;;;;;27.60;13.80;;;;;;;12.67;100.00;93921.16;5090770;28;20085;-62
2023/09/16 01:39:57;;;;;;;30.33;12.83;;;;;;;12.69;100.00;93917.97;5089503;28;20052;-62
2023/09/16 01:42:28;;;;;;;23.38;13.10;;;;;;;12.68;100.00;93922.72;5090544;28;20043;-63
2023/09/16 01:44:55;;;;;;;57.03;14.15;;;;;;;12.47;100.00;93920.44;5089798;28;20046;-60
2023/09/16 01:47:22;;;;;;;27.50;13.68;;;;;;;12.38;100.00;93916.31;5090703;28;20036;-59
2023/09/16 01:49:48;;;;;;;31.05;13.43;;;;;;;12.46;100.00;93922.44;5090354;28;20048;-59
2023/09/16 01:52:16;;;;;;;29.37;13.40;;;;;;;12.46;100.00;93921.66;5090461;28;20040;-59
2023/09/16 01:54:43;;;;;;;32.35;13.50;;;;;;;12.40;100.00;93924.13;5090438;28;20116;-58
2023/09/16 01:57:09;;;;;;;33.60;13.80;;;;;;;12.26;100.00;93922.47;5090605;28;20047;-60
2023/09/16 01:59:36;;;;;;;112.15;15.90;;;;;;;12.30;100.00;93925.91;5089893;28;20040;-57
2023/09/16 02:02:03;;;;;;;40.97;14.27;;;;;;;12.38;100.00;93932.81;5090668;28;20044;-60
2023/09/16 02:04:30;;;;;;;42.07;13.70;;;;;;;12.45;100.00;93934.63;5090144;28;20032;-60
2023/09/16 02:06:57;;;;;;;92.57;15.57;;;;;;;12.49;100.00;93926.28;5089585;28;20285;-58
2023/09/16 02:09:23;;;;;;;38.15;13.30;;;;;;;12.48;100.00;93919.25;5090336;28;20049;-58
2023/09/16 02:11:50;;;;;;;30.52;13.77;;;;;;;12.55;100.00;93921.81;5087524;28;22954;-58
2023/09/16 02:14:18;;;;;;;32.22;13.80;;;;;;;12.62;100.00;93916.16;5069810;28;20037;-59
2023/09/16 02:16:45;;;;;;;30.03;13.00;;;;;;;12.65;100.00;93923.56;5069739;28;20040;-58
2023/09/16 02:19:12;;;;;;;25.60;13.15;;;;;;;12.68;100.00;93919.97;5065814;28;20048;-58
2023/09/16 02:21:40;;;;;;;23.67;12.55;;;;;;;12.75;100.00;93919.78;5050080;28;20092;-58
2023/09/16 02:24:07;;;;;;;22.60;12.70;;;;;;;12.83;100.00;93914.13;5057324;28;20052;-58
2023/09/16 02:26:33;;;;;;;28.35;13.63;;;;;;;12.77;100.00;93913.84;5064051;28;20032;-58
2023/09/16 02:29:00;;;;;;;22.93;12.63;;;;;;;12.75;100.00;93914.28;5077043;28;20041;-59
2023/09/16 02:31:27;;;;;;;22.27;12.65;;;;;;;12.80;100.00;93907.50;5069491;28;20047;-58
2023/09/16 02:33:58;;;;;;;27.35;13.25;;;;;;;12.82;100.00;93918.84;5069231;28;20110;-58
2023/09/16 02:36:27;;;;;;;37.90;14.02;;;;;;;12.71;100.00;93910.06;5068677;28;20048;-58
2023/09/16 02:38:53;;;;;;;39.22;13.73;;;;;;;12.40;100.00;93907.63;5069265;28;20032;-58
2023/09/16 02:41:20;;;;;;;38.40;13.13;;;;;;;12.46;100.00;93918.91;5069513;28;20432;-58
2023/09/16 02:43:47;;;;;;;48.10;13.95;;;;;;;12.42;100.00;93913.47;5068992;28;20037;-58
2023/09/16 02:46:14;;;;;;;42.63;14.00;;;;;;;12.45;100.00;93909.84;5069313;28;20033;-59
2023/09/16 02:48:41;;;;;;;34.58;14.05;;;;;;;12.38;100.00;93912.78;5068941;28;20436;-58
2023/09/16 02:51:09;;;;;;;30.08;14.05;;;;;;;12.47;100.00;93906.69;5069138;28;20036;-58
2023/09/16 02:53:37;;;;;;;30.63;14.07;;;;;;;12.51;100.00;93907.38;5068713;28;20071;-58
2023/09/16 02:56:04;;;;;;;25.70;13.52;;;;;;;12.61;100.00;93906.34;5069399;28;20089;-58
2023/09/16 02:58:30;;;;;;;25.92;13.18;;;;;;;12.67;100.00;93901.88;5069421;28;20045;-59
2023/09/16 03:00:57;;;;;;;24.00;13.30;;;;;;;12.69;100.00;93901.44;5068296;28;20684;-58
2023/09/16 03:03:24;;;;;;;35.13;13.75;;;;;;;12.74;100.00;93898.19;5069098;28;20345;-59
2023/09/16 03:05:51;;;;;;;23.63;12.87;;;;;;;12.82;100.00;93899.56;5067444;28;20055;-58
2023/09/16 03:08:19;;;;;;;22.73;12.65;;;;;;;12.88;100.00;93892.34;5069272;28;20055;-58
2023/09/16 03:10:46;;;;;;;24.55;13.10;;;;;;;12.92;100.00;93884.75;5067445;28;20037;-58
2023/09/16 03:13:13;;;;;;;25.10;13.07;;;;;;;12.87;100.00;93882.53;5068860;28;20612;-58
2023/09/16 03:15:46;;;;;;;23.60;13.32;;;;;;;12.91;100.00;93874.94;5068798;28;20531;-58
2023/09/16 03:18:13;;;;;;;23.67;13.17;;;;;;;12.97;100.00;93864.19;5069257;28;20040;-58
2023/09/16 03:20:40;;;;;;;22.83;12.57;;;;;;;12.99;100.00;93867.28;5052748;28;20075;-58
2023/09/16 03:23:06;;;;;;;22.95;13.00;;;;;;;12.98;100.00;93858.25;5053224;28;20692;-59
2023/09/16 03:25:33;;;;;;;21.67;12.48;;;;;;;12.96;100.00;93859.88;5068503;28;20040;-58
2023/09/16 03:28:01;;;;;;;24.80;13.82;;;;;;;12.93;100.00;93858.75;5063331;28;20039;-58
2023/09/16 03:30:28;;;;;;;23.97;12.67;;;;;;;12.93;100.00;93850.50;5064309;28;20043;-59
2023/09/16 03:32:55;;;;;;;41.95;14.25;;;;;;;12.91;100.00;93857.66;5068518;28;20040;-58
2023/09/16 03:35:24;;;;;;;37.83;14.70;;;;;;;12.70;100.00;93854.22;5068979;28;20041;-58
2023/09/16 03:37:51;;;;;;;32.58;14.98;;;;;;;12.61;100.00;93862.28;5068485;28;20049;-58
2023/09/16 03:40:18;;;;;;;33.70;14.48;;;;;;;12.57;100.00;93861.59;5056028;28;20033;-58
2023/09/16 03:42:44;;;;;;;32.87;14.00;;;;;;;12.35;100.00;93864.88;5068319;28;20063;-58
2023/09/16 03:45:11;;;;;;;25.88;13.57;;;;;;;12.42;100.00;93874.19;5069017;28;20044;-59
2023/09/16 03:47:54;;;;;;;30.45;13.88;;;;;;;12.49;100.00;93865.75;5072310;28;20048;-58
2023/09/16 03:50:21;;;;;;;25.67;14.18;;;;;;;12.56;100.00;93860.84;5072586;28;20032;-58
2023/09/16 03:52:49;;;;;;;29.08;13.80;;;;;;;12.62;100.00;93865.84;5071960;28;20040;-58
2023/09/16 03:55:15;;;;;;;26.47;13.90;;;;;;;12.59;100.00;93856.44;5072855;28;20074;-59
2023/09/16 03:57:42;;;;;;;24.98;12.90;;;;;;;12.63;100.00;93859.88;5072186;28;20036;-58
2023/09/16 04:00:10;;;;;;;24.65;12.80;;;;;;;12.61;100.00;93856.78;5072722;28;20101;-58
2023/09/16 04:02:41;;;;;;;27.45;13.55;;;;;;;12.50;100.00;93859.03;5072052;28;20481;-58
2023/09/16 04:05:07;;;;;;;26.63;13.20;;;;;;;12.48;100.00;93859.47;5072280;28;20396;-59
2023/09/16 04:07:34;;;;;;;28.47;13.13;;;;;;;12.45;100.00;93852.06;5071678;28;20043;-58
2023/09/16 04:10:01;;;;;;;35.03;14.23;;;;;;;12.24;100.00;93858.84;5072121;28;20044;-58
2023/09/16 04:12:28;;;;;;;82.45;14.25;;;;;;;12.21;100.00;93851.44;5072571;28;20045;-58
2023/09/16 04:14:55;;;;;;;31.15;14.43;;;;;;;12.10;100.00;93857.19;5071775;28;20396;-58
2023/09/16 04:17:22;;;;;;;41.95;14.50;;;;;;;12.15;100.00;93853.94;5067528;28;20045;-59
2023/09/16 04:19:48;;;;;;;31.00;14.33;;;;;;;12.18;100.00;93852.28;5060244;28;20174;-58
2023/09/16 04:22:15;;;;;;;32.10;13.70;;;;;;;12.10;100.00;93848.91;5053366;28;20087;-59
2023/09/16 04:24:42;;;;;;;33.55;13.85;;;;;;;12.08;100.00;93858.81;5070660;28;20040;-59
2023/09/16 04:27:08;;;;;;;38.95;14.52;;;;;;;12.00;100.00;93852.69;5074014;28;20040;-59
2023/09/16 04:29:35;;;;;;;29.05;13.45;;;;;;;11.91;100.00;93856.03;5075582;28;20047;-58
2023/09/16 04:32:02;;;;;;;41.00;13.17;;;;;;;12.00;100.00;93860.94;5072191;28;20040;-58
2023/09/16 04:34:29;;;;;;;46.95;13.85;;;;;;;11.94;100.00;93846.91;5058665;28;20045;-59
2023/09/16 04:36:56;;;;;;;33.53;13.77;;;;;;;11.91;100.00;93845.03;5070941;28;20448;-59
2023/09/16 04:39:23;;;;;;;33.60;13.57;;;;;;;11.89;100.00;93850.19;5071839;28;20047;-59
2023/09/16 04:41:59;;;;;;;28.08;13.02;;;;;;;11.94;100.00;93848.88;5071176;28;20045;-59
2023/09/16 04:44:26;;;;;;;27.17;13.47;;;;;;;11.96;100.00;93852.75;5071675;28;20036;-58
2023/09/16 04:46:53;;;;;;;32.70;12.82;;;;;;;11.90;100.00;93856.44;5064115;28;20040;-59
2023/09/16 04:49:20;;;;;;;29.65;12.90;;;;;;;11.88;100.00;93850.56;5071276;28;20896;-58
2023/09/16 04:51:47;;;;;;;31.30;13.48;;;;;;;11.98;100.00;93850.34;5066481;28;20512;-58
2023/09/16 04:54:14;;;;;;;27.98;12.90;;;;;;;12.07;100.00;93849.00;5071662;28;20496;-58
2023/09/16 04:56:41;;;;;;;27.73;12.73;;;;;;;12.12;100.00;93845.75;5071208;28;20040;-58
2023/09/16 04:59:08;;;;;;;26.10;12.10;;;;;;;12.16;100.00;93849.19;5070816;28;20043;-59
2023/09/16 05:01:34;;;;;;;24.15;12.02;;;;;;;12.17;100.00;93839.72;5067140;28;20497;-59
2023/09/16 05:04:01;;;;;;;28.45;12.15;;;;;;;12.13;100.00;93837.06;5058486;28;20067;-59
2023/09/16 05:06:28;;;;;;;30.08;12.38;;;;;;;12.09;100.00;93833.63;5070888;28;20047;-59
2023/09/16 05:08:55;;;;;;;27.47;12.47;;;;;;;12.06;100.00;93833.72;5070579;28;20491;-59
2023/09/16 05:11:22;;;;;;;34.88;12.00;;;;;;;12.11;100.00;93833.19;5069535;28;20428;-59
2023/09/16 05:13:51;;;;;;;26.75;12.55;;;;;;;12.08;100.00;93839.56;5088047;28;20048;-60
2023/09/16 05:16:17;;;;;;;102.18;13.88;;;;;;;11.95;100.00;93833.94;5091255;28;20301;-58
2023/09/16 05:18:44;;;;;;;35.92;11.85;;;;;;;11.85;100.00;93834.91;5090731;28;20048;-59
2023/09/16 05:21:11;;;;;;;30.57;11.97;;;;;;;11.89;100.00;93836.44;5091296;28;20036;-59
2023/09/16 05:23:38;;;;;;;53.30;12.68;;;;;;;11.90;100.00;93837.97;5090210;28;20044;-58
2023/09/16 05:26:05;;;;;;;37.60;12.60;;;;;;;11.92;100.00;93829.28;5091244;28;20040;-59
2023/09/16 05:28:32;;;;;;;27.58;11.82;;;;;;;12.07;100.00;93838.00;5090439;28;20552;-58
2023/09/16 05:30:59;;;;;;;38.78;12.57;;;;;;;11.90;100.00;93837.19;5089171;28;20048;-58
2023/09/16 05:33:26;;;;;;;42.93;12.00;;;;;;;12.02;100.00;93839.28;5090856;28;20381;-59
2023/09/16 05:35:52;;;;;;;42.45;12.13;;;;;;;12.02;100.00;93842.03;5090310;28;20042;-59
2023/09/16 05:38:19;;;;;;;26.15;11.60;;;;;;;12.16;100.00;93849.19;5090960;28;20260;-59
2023/09/16 05:40:46;;;;;;;34.30;12.00;;;;;;;12.32;100.00;93838.22;5089905;28;20059;-59
2023/09/16 05:43:13;;;;;;;87.78;13.05;;;;;;;12.36;100.00;93843.63;5090852;28;20082;-59
2023/09/16 05:45:39;;;;;;;57.10;12.27;;;;;;;12.52;100.00;93831.88;5090003;28;20074;-59
2023/09/16 05:48:06;;;;;;;76.53;12.88;;;;;;;12.40;100.00;93838.81;5090374;28;20054;-59
2023/09/16 05:50:33;;;;;;;96.32;12.70;;;;;;;12.54;100.00;93830.22;5090179;28;20472;-59
2023/09/16 05:53:03;;;;;;;43.65;12.07;;;;;;;12.70;100.00;93832.19;5090812;28;20473;-59
2023/09/16 05:55:29;;;;;;;31.77;12.43;;;;;;;12.79;100.00;93828.81;5090264;28;20048;-59
2023/09/16 05:57:56;;;;;;;41.23;12.40;;;;;;;12.97;100.00;93826.38;5089923;28;20051;-59
2023/09/16 06:00:23;;;;;;;149.63;13.07;;;;;;;12.71;100.00;93830.97;5102328;28;20404;-59
2023/09/16 06:02:51;;;;;;;61.30;11.90;;;;;;;12.81;100.00;93822.88;5089543;28;20052;-57
2023/09/16 06:05:18;;;;;;;65.35;12.05;;;;;;;12.71;100.00;93830.22;5089772;28;20044;-57
2023/09/16 06:07:45;;;;;;;35.13;12.63;;;;;;;13.23;100.00;93825.75;5090674;28;20044;-58
2023/09/16 06:10:12;;;;;;;57.60;12.10;;;;;;;13.47;100.00;93815.28;5090714;28;20044;-57
2023/09/16 06:12:39;;;;;;;36.17;12.50;;;;;;;13.45;100.00;93821.22;5088148;28;20044;-57
2023/09/16 06:15:07;;;;;;;56.00;12.88;;;;;;;13.18;100.00;93830.56;5089653;28;20040;-57
2023/09/16 06:17:34;;;;;;;37.25;13.10;;;;;;;13.58;100.00;93824.78;5089676;28;20412;-57
2023/09/16 06:20:00;;;;;;;36.33;13.25;;;;;;;13.78;100.00;93821.06;5081973;28;20059;-58
2023/09/16 06:22:27;;;;;;;42.10;13.50;;;;;;;14.01;100.00;93822.00;5078275;28;20038;-58
2023/09/16 06:24:54;;;;;;;49.85;13.30;;;;;;;14.31;100.00;93813.16;5088947;28;20044;-58
2023/09/16 06:27:21;;;;;;;44.58;13.02;;;;;;;14.63;100.00;93811.41;5092445;27;20048;-58
2023/09/16 06:29:50;;;;;;;110.07;14.35;;;;;;;14.81;100.00;93807.28;5079970;27;20036;-58
2023/09/16 06:32:18;;;;;;;42.63;12.82;;;;;;;14.99;100.00;93815.75;5079523;28;20483;-59
2023/09/16 06:34:45;;;;;;;33.23;12.70;;;;;;;15.60;100.00;93818.41;5085610;28;20097;-59
2023/09/16 06:37:12;;;;;;;37.72;12.95;;;;;;;16.22;100.00;93810.16;5085671;28;20039;-59
2023/09/16 06:39:40;;;;;;;25.17;12.30;;;;;;;16.61;100.00;93821.69;5089639;28;20036;-59
2023/09/16 06:42:06;;;;;;;38.05;11.75;;;;;;;15.91;100.00;93815.69;5089079;28;20058;-59
2023/09/16 06:44:33;;;;;;;17.75;11.02;;;;;;;16.06;100.00;93811.16;5087643;28;20070;-59
2023/09/16 06:47:00;;;;;;;17.90;11.20;;;;;;;16.27;100.00;93809.56;5068802;28;20076;-59
2023/09/16 06:49:27;;;;;;;19.60;11.23;;;;;;;16.77;100.00;93809.56;5083588;28;20073;-59
2023/09/16 06:51:53;;;;;;;19.55;10.35;;;;;;;16.82;100.00;93800.69;5088493;28;20411;-59
2023/09/16 06:54:20;;;;;;;17.55;9.80;;;;;;;17.57;100.00;93800.25;5089539;28;20056;-59
2023/09/16 06:56:47;;;;;;;21.95;10.77;;;;;;;17.71;100.00;93798.88;5088544;28;20404;-59
2023/09/16 06:59:14;;;;;;;16.53;9.67;;;;;;;18.10;100.00;93784.47;5089304;28;20044;-59
2023/09/16 07:01:40;;;;;;;14.43;9.90;;;;;;;17.71;100.00;93800.88;5088284;28;20059;-59
2023/09/16 07:04:07;;;;;;;13.57;9.23;;;;;;;18.33;100.00;93794.88;5089185;28;20046;-59
2023/09/16 07:06:34;;;;;;;11.57;8.60;;;;;;;20.71;100.00;93794.66;5088245;28;20372;-57
2023/09/16 07:09:01;;;;;;;11.38;8.30;;;;;;;22.39;100.00;93797.88;5088886;28;20044;-57
2023/09/16 07:11:27;;;;;;;10.13;7.73;;;;;;;24.03;100.00;93790.38;5087848;28;20038;-58
2023/09/16 07:13:54;;;;;;;10.05;7.55;;;;;;;25.96;90.65;93789.56;5088369;28;20036;-57
2023/09/16 07:16:21;;;;;;;11.18;8.10;;;;;;;26.99;80.19;93801.63;5088816;28;20046;-58
2023/09/16 07:18:48;;;;;;;11.38;8.38;;;;;;;24.22;90.99;93799.81;5088304;28;20044;-58
2023/09/16 07:21:15;;;;;;;11.27;8.57;;;;;;;23.86;97.56;93802.28;5091602;28;20042;-58
2023/09/16 07:23:42;;;;;;;11.37;9.47;;;;;;;23.81;97.46;93805.09;5095294;28;20031;-58
2023/09/16 07:26:08;;;;;;;10.88;8.65;;;;;;;24.36;92.07;93805.69;5095951;27;20036;-58
2023/09/16 07:28:35;;;;;;;12.00;9.10;;;;;;;26.54;83.70;93804.78;5094904;28;20050;-57
2023/09/16 07:31:02;;;;;;;13.13;11.30;;;;;;;27.55;74.77;93801.03;5095686;28;20399;-58
2023/09/16 07:33:29;;;;;;;10.48;8.82;;;;;;;29.00;67.90;93796.69;5095682;28;20040;-58
2023/09/16 07:35:56;;;;;;;11.93;8.23;;;;;;;28.75;66.39;93790.41;5094300;28;21727;-59
2023/09/16 07:38:23;;;;;;;10.23;9.13;;;;;;;30.48;61.43;93786.81;5095621;28;20052;-58
2023/09/16 07:40:52;;;;;;;12.57;9.43;;;;;;;30.87;56.53;93793.63;5095078;28;20058;-59
2023/09/16 07:43:20;;;;;;;10.50;8.55;;;;;;;31.39;55.48;93791.00;5095750;28;20404;-59
2023/09/16 07:45:46;;;;;;;10.75;8.60;;;;;;;28.43;61.95;93798.84;5094919;28;20036;-58
2023/09/16 07:48:14;;;;;;;11.67;8.70;;;;;;;28.38;66.57;93799.72;5095511;28;20100;-58
2023/09/16 07:50:41;;;;;;;10.88;9.30;;;;;;;26.38;76.20;93810.03;5094318;28;20036;-59
2023/09/16 07:53:08;;;;;;;11.60;9.50;;;;;;;27.64;71.04;93806.31;5095368;28;20473;-59
2023/09/16 07:55:34;;;;;;;10.73;8.90;;;;;;;29.71;63.48;93810.56;5094898;28;20038;-59
2023/09/16 07:58:01;;;;;;;11.48;9.10;;;;;;;30.70;58.44;93805.34;5095633;28;20715;-58
2023/09/16 08:00:29;;;;;;;11.50;9.00;;;;;;;31.33;57.32;93813.84;5095679;28;20507;-59
2023/09/16 08:02:56;;;;;;;11.40;9.18;;;;;;;31.78;54.42;93809.81;5094596;28;20048;-59
2023/09/16 08:05:23;;;;;;;11.35;9.18;;;;;;;31.40;53.68;93812.38;5095081;28;20032;-59
2023/09/16 08:07:50;;;;;;;10.77;9.15;;;;;;;30.24;58.62;93814.09;5094733;28;20060;-59
2023/09/16 08:10:16;;;;;;;10.80;9.55;;;;;;;30.48;58.37;93814.38;5095507;28;20709;-59
2023/09/16 08:12:43;;;;;;;10.23;8.50;;;;;;;31.91;56.13;93811.75;5094552;28;20050;-59
2023/09/16 08:15:10;;;;;;;10.73;8.50;;;;;;;32.96;53.15;93818.94;5095396;28;20101;-59
2023/09/16 08:17:37;;;;;;;10.13;7.82;;;;;;;34.34;49.21;93818.81;5093180;28;20042;-59
2023/09/16 08:20:06;;;;;;;11.43;9.63;;;;;;;33.76;48.62;93821.44;5095189;28;20040;-59
2023/09/16 08:22:33;;;;;;;12.52;8.75;;;;;;;34.47;44.57;93825.59;5094855;28;20040;-59
2023/09/16 08:25:02;;;;;;;8.03;6.93;;;;;;;31.83;48.72;93828.00;5094712;28;20397;-59
2023/09/16 08:27:31;;;;;;;7.97;6.07;;;;;;;32.99;46.48;93826.34;5094941;28;20110;-59
2023/09/16 08:29:58;;;;;;;12.15;7.57;;;;;;;30.41;52.61;93827.16;5094021;28;21591;-59
2023/09/16 08:32:28;;;;;;;9.60;8.02;;;;;;;30.47;53.89;93822.13;5084818;28;20051;-59
2023/09/16 08:34:56;;;;;;;9.60;8.18;;;;;;;30.03;56.30;93831.00;5072197;28;20047;-59
2023/09/16 08:37:22;;;;;;;8.93;7.73;;;;;;;30.84;56.47;93825.88;5091649;28;20040;-59
2023/09/16 08:39:49;;;;;;;8.90;7.40;;;;;;;31.24;54.32;93826.44;5091313;28;20044;-59
2023/09/16 08:42:28;;;;;;;7.90;5.88;;;;;;;33.75;45.54;93825.63;5091977;28;20396;-59
2023/09/16 08:44:58;;;;;;;7.10;5.65;;;;;;;34.24;43.67;93822.84;5091714;28;20046;-59
2023/09/16 08:47:33;;;;;;;7.25;6.20;;;;;;;33.18;44.10;93818.25;5091814;28;20477;-60
2023/09/16 08:50:21;;;;;;;6.50;5.63;;;;;;;33.81;43.21;93825.44;5091137;28;21716;-59
2023/09/16 08:52:53;;;;;;;6.35;4.70;;;;;;;35.58;40.95;93813.84;5091184;28;20039;-59
2023/09/16 08:55:20;;;;;;;5.63;4.60;;;;;;;37.25;36.30;93816.63;5091476;28;20370;-60
2023/09/16 08:57:52;;;;;;;5.65;4.53;;;;;;;35.52;37.10;93806.88;5091454;28;20267;-59
2023/09/16 09:00:19;;;;;;;5.55;4.70;;;;;;;33.76;39.30;93815.75;5091752;28;20043;-60
2023/09/16 09:02:46;;;;;;;5.20;4.40;;;;;;;33.38;40.52;93802.31;5091296;28;20036;-59
2023/09/16 09:05:14;;;;;;;5.60;4.38;;;;;;;31.91;43.74;93817.44;5091313;28;20409;-59
2023/09/16 09:07:42;;;;;;;5.53;4.70;;;;;;;30.62;45.72;93805.25;5090668;28;20048;-59
2023/09/16 09:10:13;;;;;;;5.80;4.40;;;;;;;31.72;45.39;93811.28;5091358;28;20565;-59
2023/09/16 09:12:42;;;;;;;6.55;4.40;;;;;;;32.95;41.80;93808.91;5077711;28;20412;-59
2023/09/16 09:15:13;;;;;;;5.10;4.20;;;;;;;33.78;40.18;93806.63;5091197;28;20044;-59
2023/09/16 09:17:44;;;;;;;5.40;4.00;;;;;;;35.57;36.76;93797.28;5090937;28;20032;-58
2023/09/16 09:20:15;;;;;;;4.40;3.83;;;;;;;32.27;40.06;93815.94;5090705;28;20060;-59
2023/09/16 09:22:42;;;;;;;4.75;3.75;;;;;;;31.88;42.38;93814.97;5089895;28;20108;-59
2023/09/16 09:25:09;;;;;;;4.70;3.90;;;;;;;34.02;38.67;93817.38;5090817;28;20048;-59
2023/09/16 09:27:35;;;;;;;5.67;4.03;;;;;;;33.77;38.18;93810.81;5090863;28;20040;-59
2023/09/16 09:30:04;;;;;;;4.50;3.80;;;;;;;35.06;35.65;93810.81;5091255;28;20381;-59
2023/09/16 09:32:32;;;;;;;4.45;3.88;;;;;;;36.03;35.78;93801.81;5080843;28;20052;-59
2023/09/16 09:35:05;;;;;;;5.05;3.65;;;;;;;35.12;34.98;93810.59;5071475;28;20040;-59
2023/09/16 09:37:33;;;;;;;4.22;3.58;;;;;;;32.42;38.14;93818.84;5087281;28;20504;-59
2023/09/16 09:40:14;;;;;;;5.20;3.87;;;;;;;32.13;39.67;93813.22;5090458;28;20032;-59
2023/09/16 09:43:01;;;;;;;3.85;3.17;;;;;;;32.68;38.32;93806.44;5090545;28;20052;-59
2023/09/16 09:45:35;;;;;;;4.07;3.60;;;;;;;32.38;39.49;93818.44;5090825;28;20040;-59
2023/09/16 09:48:02;;;;;;;4.85;3.30;;;;;;;32.18;39.01;93817.22;5089634;28;20445;-59
2023/09/16 09:50:33;;;;;;;4.47;3.25;;;;;;;31.92;38.84;93816.13;5091067;28;20485;-59
2023/09/16 09:53:01;;;;;;;3.60;2.80;;;;;;;32.42;37.34;93821.66;5089941;28;20404;-59
2023/09/16 09:55:29;;;;;;;3.20;2.40;;;;;;;34.78;33.16;93817.66;5090276;28;20519;-59
2023/09/16 09:57:57;;;;;;;3.65;2.30;;;;;;;37.81;29.24;93803.69;5089840;28;20754;-59
2023/09/16 10:00:24;;;;;;;3.47;2.78;;;;;;;39.54;27.20;93806.94;5090491;28;20508;-60
2023/09/16 10:02:50;;;;;;;4.75;2.75;;;;;;;40.86;25.83;93798.38;5089934;28;20097;-60
2023/09/16 10:05:23;;;;;;;3.93;2.63;;;;;;;39.44;26.42;93791.88;5076872;28;20044;-60
2023/09/16 10:07:51;;;;;;;3.65;2.50;;;;;;;39.10;27.80;93796.69;5089633;28;20056;-59
2023/09/16 10:10:21;;;;;;;3.35;2.60;;;;;;;40.23;25.55;93789.25;5090079;28;20044;-60
2023/09/16 10:12:53;;;;;;;3.30;2.50;;;;;;;41.18;24.49;93785.31;5089703;28;20423;-60
2023/09/16 10:15:32;;;;;;;2.90;2.30;;;;;;;40.18;23.38;93787.47;5090032;28;20036;-60
2023/09/16 10:18:00;;;;;;;3.23;2.10;;;;;;;38.34;25.70;93779.00;5089193;28;20400;-60
2023/09/16 10:20:38;;;;;;;2.88;2.17;;;;;;;38.24;26.63;93775.38;5090235;28;20382;-60
2023/09/16 10:23:05;;;;;;;2.70;2.10;;;;;;;37.31;26.72;93776.28;5089432;28;20838;-60
2023/09/16 10:25:33;;;;;;;4.07;2.25;;;;;;;35.65;29.24;93778.00;5089394;28;20048;-59
2023/09/16 10:28:07;;;;;;;4.28;2.70;;;;;;;32.48;33.06;93770.34;5089808;28;20048;-59
2023/09/16 10:30:36;;;;;;;4.03;3.43;;;;;;;33.34;32.77;93769.88;5089691;28;20092;-59
2023/09/16 10:33:10;;;;;;;3.63;2.42;;;;;;;28.95;39.66;93777.00;5076634;28;20036;-59
2023/09/16 10:35:41;;;;;;;2.70;2.10;;;;;;;29.70;36.90;93769.44;5074543;28;20044;-59
2023/09/16 10:38:12;;;;;;;3.13;1.90;;;;;;;31.04;34.44;93762.78;5089914;28;20039;-60
2023/09/16 10:40:39;;;;;;;5.28;2.20;;;;;;;28.90;37.30;93763.75;5089082;28;20645;-59
2023/09/16 10:43:06;;;;;;;2.73;1.80;;;;;;;26.86;40.46;93774.84;5089825;28;20435;-59
2023/09/16 10:45:33;;;;;;;3.17;2.40;;;;;;;28.44;37.39;93760.88;5089337;28;20438;-58
2023/09/16 10:48:01;;;;;;;3.50;2.60;;;;;;;29.30;37.58;93761.75;5089418;28;20529;-59
2023/09/16 10:50:34;;;;;;;3.40;2.40;;;;;;;29.72;38.41;93761.19;5088005;28;20047;-59
2023/09/16 10:53:18;;;;;;;3.80;2.50;;;;;;;30.75;37.70;93758.38;5088694;28;21662;-59
2023/09/16 10:56:10;;;;;;;2.93;2.20;;;;;;;33.52;32.86;93760.19;5076147;28;20485;-58
2023/09/16 10:58:46;;;;;;;3.65;2.20;;;;;;;32.97;34.01;93761.53;5088904;28;20036;-59
2023/09/16 11:01:26;;;;;;;3.08;2.20;;;;;;;29.38;37.66;93768.28;5089672;28;20443;-59
2023/09/16 11:03:57;;;;;;;3.38;2.35;;;;;;;29.36;36.47;93761.63;5077530;28;20051;-59
2023/09/16 11:06:24;;;;;;;2.88;2.10;;;;;;;30.29;37.22;93763.56;5088989;28;20116;-59
2023/09/16 11:08:51;;;;;;;3.20;2.20;;;;;;;30.52;36.17;93761.00;5089119;28;20146;-59
2023/09/16 11:11:20;;;;;;;3.22;2.28;;;;;;;31.00;36.26;93758.78;5089487;28;20047;-59
2023/09/16 11:13:47;;;;;;;4.70;2.20;;;;;;;31.73;35.05;93770.25;5088520;28;20048;-58
2023/09/16 11:16:14;;;;;;;3.00;2.20;;;;;;;29.67;37.59;93768.47;5089535;28;20054;-59
2023/09/16 11:18:42;;;;;;;3.20;2.00;;;;;;;29.15;39.34;93761.50;5088350;28;20042;-58
2023/09/16 11:21:11;;;;;;;3.00;2.20;;;;;;;29.33;38.95;93765.53;5089420;28;20404;-59